sensor_id;sensor_type;location;lat;lon;timestamp;temperature;humidity
21799;DHT22;24973;47.178;15.316;2022-08-19T00:01:03;15.70;99.90
21799;DHT22;24973;47.178;15.316;2022-08-19T00:03:53;15.70;99.90
21799;DHT22;24973;47.178;15.316;2022-08-19T00:06:45;15.80;99.90
21799;DHT22;24973;47.178;15.316;2022-08-19T00:09:34;15.80;99.90
21799;DHT22;24973;47.178;15.316;2022-08-19T00:12:23;15.80;99.90
21799;DHT22;24973;47.178;15.316;2022-08-19T00:15:16;15.70;99.90
21799;DHT22;24973;47.178;15.316;2022-08-19T00:18:07;15.70;99.90
21799;DHT22;24973;47.178;15.316;2022-08-19T00:21:07;15.70;99.90
21799;DHT22;24973;47.178;15.316;2022-08-19T00:24:06;15.70;99.90
21799;DHT22;24973;47.178;15.316;2022-08-19T00:26:56;15.60;99.90
21799;DHT22;24973;47.178;15.316;2022-08-19T00:29:46;15.60;99.90
21799;DHT22;24973;47.178;15.316;2022-08-19T00:32:36;15.70;99.90
21799;DHT22;24973;47.178;15.316;2022-08-19T00:35:27;15.80;99.90
21799;DHT22;24973;47.178;15.316;2022-08-19T00:38:19;15.80;99.90
21799;DHT22;24973;47.178;15.316;2022-08-19T00:41:12;15.80;99.90
21799;DHT22;24973;47.178;15.316;2022-08-19T00:44:04;15.70;99.90
21799;DHT22;24973;47.178;15.316;2022-08-19T00:46:56;15.70;99.90
21799;DHT22;24973;47.178;15.316;2022-08-19T00:49:51;15.70;99.90
21799;DHT22;24973;47.178;15.316;2022-08-19T00:52:59;15.80;99.90
21799;DHT22;24973;47.178;15.316;2022-08-19T00:55:54;15.80;99.90
21799;DHT22;24973;47.178;15.316;2022-08-19T00:58:44;15.80;99.90
21799;DHT22;24973;47.178;15.316;2022-08-19T01:01:49;15.70;99.90
21799;DHT22;24973;47.178;15.316;2022-08-19T01:04:38;15.70;99.90
21799;DHT22;24973;47.178;15.316;2022-08-19T01:07:28;15.70;99.90
21799;DHT22;24973;47.178;15.316;2022-08-19T01:10:35;15.70;99.90
21799;DHT22;24973;47.178;15.316;2022-08-19T01:13:29;15.70;99.90
21799;DHT22;24973;47.178;15.316;2022-08-19T01:16:37;15.70;99.90
21799;DHT22;24973;47.178;15.316;2022-08-19T01:19:34;15.80;99.90
21799;DHT22;24973;47.178;15.316;2022-08-19T01:22:32;15.80;99.90
21799;DHT22;24973;47.178;15.316;2022-08-19T01:25:34;15.80;99.90
21799;DHT22;24973;47.178;15.316;2022-08-19T01:28:27;15.70;99.90
21799;DHT22;24973;47.178;15.316;2022-08-19T01:31:31;15.70;99.90
21799;DHT22;24973;47.178;15.316;2022-08-19T01:34:23;15.70;99.90
21799;DHT22;24973;47.178;15.316;2022-08-19T01:37:22;15.80;99.90
21799;DHT22;24973;47.178;15.316;2022-08-19T01:40:16;15.80;99.90
21799;DHT22;24973;47.178;15.316;2022-08-19T01:43:12;15.80;99.90
21799;DHT22;24973;47.178;15.316;2022-08-19T01:46:01;15.70;99.90
21799;DHT22;24973;47.178;15.316;2022-08-19T01:48:51;15.70;99.90
21799;DHT22;24973;47.178;15.316;2022-08-19T01:51:40;15.80;99.90
21799;DHT22;24973;47.178;15.316;2022-08-19T01:54:29;15.80;99.90
21799;DHT22;24973;47.178;15.316;2022-08-19T01:57:21;15.80;99.90
21799;DHT22;24973;47.178;15.316;2022-08-19T02:00:14;15.80;99.90
21799;DHT22;24973;47.178;15.316;2022-08-19T02:03:07;15.90;99.90
21799;DHT22;24973;47.178;15.316;2022-08-19T02:06:00;15.80;99.90
21799;DHT22;24973;47.178;15.316;2022-08-19T02:08:50;15.80;99.90
21799;DHT22;24973;47.178;15.316;2022-08-19T02:11:41;15.80;99.90
21799;DHT22;24973;47.178;15.316;2022-08-19T02:14:33;15.80;99.90
21799;DHT22;24973;47.178;15.316;2022-08-19T02:17:22;15.90;99.90
21799;DHT22;24973;47.178;15.316;2022-08-19T02:20:12;15.80;99.90
21799;DHT22;24973;47.178;15.316;2022-08-19T02:23:08;15.80;99.90
21799;DHT22;24973;47.178;15.316;2022-08-19T02:25:58;15.80;99.90
21799;DHT22;24973;47.178;15.316;2022-08-19T02:28:47;15.80;99.90
21799;DHT22;24973;47.178;15.316;2022-08-19T02:31:38;15.80;99.90
21799;DHT22;24973;47.178;15.316;2022-08-19T02:34:27;15.90;99.90
21799;DHT22;24973;47.178;15.316;2022-08-19T02:37:16;15.90;99.90
21799;DHT22;24973;47.178;15.316;2022-08-19T02:40:22;15.90;99.90
21799;DHT22;24973;47.178;15.316;2022-08-19T02:43:11;16.00;99.90
21799;DHT22;24973;47.178;15.316;2022-08-19T02:46:00;15.90;99.90
21799;DHT22;24973;47.178;15.316;2022-08-19T02:48:53;15.80;99.90
21799;DHT22;24973;47.178;15.316;2022-08-19T02:51:45;15.80;99.90
21799;DHT22;24973;47.178;15.316;2022-08-19T02:54:35;15.80;99.90
21799;DHT22;24973;47.178;15.316;2022-08-19T02:57:24;15.70;99.90
21799;DHT22;24973;47.178;15.316;2022-08-19T03:00:18;15.70;99.90
21799;DHT22;24973;47.178;15.316;2022-08-19T03:03:08;15.60;99.90
21799;DHT22;24973;47.178;15.316;2022-08-19T03:06:08;15.60;99.90
21799;DHT22;24973;47.178;15.316;2022-08-19T03:09:27;15.70;99.90
21799;DHT22;24973;47.178;15.316;2022-08-19T03:12:17;15.80;99.90
21799;DHT22;24973;47.178;15.316;2022-08-19T03:15:09;15.80;99.90
21799;DHT22;24973;47.178;15.316;2022-08-19T03:17:58;15.80;99.90
21799;DHT22;24973;47.178;15.316;2022-08-19T03:20:50;15.80;99.90
21799;DHT22;24973;47.178;15.316;2022-08-19T03:23:44;15.80;99.90
21799;DHT22;24973;47.178;15.316;2022-08-19T03:26:49;15.80;99.90
21799;DHT22;24973;47.178;15.316;2022-08-19T03:29:42;15.90;99.90
21799;DHT22;24973;47.178;15.316;2022-08-19T03:32:31;15.90;99.90
21799;DHT22;24973;47.178;15.316;2022-08-19T03:35:23;15.90;99.90
21799;DHT22;24973;47.178;15.316;2022-08-19T03:38:21;15.90;99.90
21799;DHT22;24973;47.178;15.316;2022-08-19T03:41:18;15.80;99.90
21799;DHT22;24973;47.178;15.316;2022-08-19T03:44:18;15.90;99.90
21799;DHT22;24973;47.178;15.316;2022-08-19T03:47:07;15.90;99.90
21799;DHT22;24973;47.178;15.316;2022-08-19T03:50:05;15.90;99.90
21799;DHT22;24973;47.178;15.316;2022-08-19T03:52:57;15.90;99.90
21799;DHT22;24973;47.178;15.316;2022-08-19T03:55:49;15.90;99.90
21799;DHT22;24973;47.178;15.316;2022-08-19T03:58:40;16.00;99.90
21799;DHT22;24973;47.178;15.316;2022-08-19T04:01:30;16.00;99.90
21799;DHT22;24973;47.178;15.316;2022-08-19T04:04:19;16.10;99.90
21799;DHT22;24973;47.178;15.316;2022-08-19T04:07:09;16.30;99.90
21799;DHT22;24973;47.178;15.316;2022-08-19T04:09:59;16.40;99.90
21799;DHT22;24973;47.178;15.316;2022-08-19T04:12:48;16.50;99.90
21799;DHT22;24973;47.178;15.316;2022-08-19T04:15:40;16.60;99.90
21799;DHT22;24973;47.178;15.316;2022-08-19T04:18:31;16.70;99.90
21799;DHT22;24973;47.178;15.316;2022-08-19T04:21:26;16.80;99.90
21799;DHT22;24973;47.178;15.316;2022-08-19T04:24:33;16.90;99.90
21799;DHT22;24973;47.178;15.316;2022-08-19T04:27:23;17.00;99.90
21799;DHT22;24973;47.178;15.316;2022-08-19T04:30:21;17.10;99.90
21799;DHT22;24973;47.178;15.316;2022-08-19T04:33:26;17.20;99.90
21799;DHT22;24973;47.178;15.316;2022-08-19T04:36:16;17.20;99.90
21799;DHT22;24973;47.178;15.316;2022-08-19T04:39:27;17.10;99.90
21799;DHT22;24973;47.178;15.316;2022-08-19T04:42:35;17.30;99.90
21799;DHT22;24973;47.178;15.316;2022-08-19T04:45:29;17.30;99.90
21799;DHT22;24973;47.178;15.316;2022-08-19T04:48:18;17.30;99.90
21799;DHT22;24973;47.178;15.316;2022-08-19T04:51:17;17.40;99.90
21799;DHT22;24973;47.178;15.316;2022-08-19T04:54:07;17.40;99.90
21799;DHT22;24973;47.178;15.316;2022-08-19T04:56:58;17.40;99.90
21799;DHT22;24973;47.178;15.316;2022-08-19T04:59:49;17.50;99.90
21799;DHT22;24973;47.178;15.316;2022-08-19T05:02:51;17.60;99.90
21799;DHT22;24973;47.178;15.316;2022-08-19T05:05:40;17.60;99.90
21799;DHT22;24973;47.178;15.316;2022-08-19T05:08:31;17.70;99.90
21799;DHT22;24973;47.178;15.316;2022-08-19T05:11:23;17.70;99.90
21799;DHT22;24973;47.178;15.316;2022-08-19T05:14:23;17.70;99.90
21799;DHT22;24973;47.178;15.316;2022-08-19T05:17:12;17.70;99.90
21799;DHT22;24973;47.178;15.316;2022-08-19T05:20:19;17.70;99.90
21799;DHT22;24973;47.178;15.316;2022-08-19T05:23:25;17.60;99.90
21799;DHT22;24973;47.178;15.316;2022-08-19T05:26:15;17.70;99.90
21799;DHT22;24973;47.178;15.316;2022-08-19T05:29:10;17.70;99.90
21799;DHT22;24973;47.178;15.316;2022-08-19T05:31:59;17.70;99.90
21799;DHT22;24973;47.178;15.316;2022-08-19T05:34:49;17.70;99.90
21799;DHT22;24973;47.178;15.316;2022-08-19T05:37:39;17.70;99.90
21799;DHT22;24973;47.178;15.316;2022-08-19T05:40:28;17.70;99.90
21799;DHT22;24973;47.178;15.316;2022-08-19T05:43:18;17.80;99.90
21799;DHT22;24973;47.178;15.316;2022-08-19T05:46:08;17.80;99.90
21799;DHT22;24973;47.178;15.316;2022-08-19T05:48:57;17.80;99.90
21799;DHT22;24973;47.178;15.316;2022-08-19T05:51:51;17.80;99.90
21799;DHT22;24973;47.178;15.316;2022-08-19T05:54:43;17.90;99.90
21799;DHT22;24973;47.178;15.316;2022-08-19T05:57:34;18.10;99.90
21799;DHT22;24973;47.178;15.316;2022-08-19T06:00:25;18.30;99.90
21799;DHT22;24973;47.178;15.316;2022-08-19T06:03:14;18.40;99.90
21799;DHT22;24973;47.178;15.316;2022-08-19T06:06:03;18.40;99.90
21799;DHT22;24973;47.178;15.316;2022-08-19T06:08:53;18.40;99.90
21799;DHT22;24973;47.178;15.316;2022-08-19T06:11:46;18.40;99.90
21799;DHT22;24973;47.178;15.316;2022-08-19T06:14:41;18.40;99.90
21799;DHT22;24973;47.178;15.316;2022-08-19T06:17:36;18.50;99.90
21799;DHT22;24973;47.178;15.316;2022-08-19T06:20:39;18.70;99.90
21799;DHT22;24973;47.178;15.316;2022-08-19T06:23:40;18.80;99.90
21799;DHT22;24973;47.178;15.316;2022-08-19T06:26:30;19.10;99.90
21799;DHT22;24973;47.178;15.316;2022-08-19T06:29:21;19.30;99.90
21799;DHT22;24973;47.178;15.316;2022-08-19T06:32:16;19.50;99.90
21799;DHT22;24973;47.178;15.316;2022-08-19T06:35:10;19.50;99.90
21799;DHT22;24973;47.178;15.316;2022-08-19T06:38:10;19.70;99.90
21799;DHT22;24973;47.178;15.316;2022-08-19T06:41:02;19.90;99.90
21799;DHT22;24973;47.178;15.316;2022-08-19T06:43:51;20.00;99.90
21799;DHT22;24973;47.178;15.316;2022-08-19T06:46:44;20.10;99.90
21799;DHT22;24973;47.178;15.316;2022-08-19T06:49:33;20.20;99.90
21799;DHT22;24973;47.178;15.316;2022-08-19T06:52:33;20.30;99.90
21799;DHT22;24973;47.178;15.316;2022-08-19T06:55:25;20.30;99.90
21799;DHT22;24973;47.178;15.316;2022-08-19T06:58:16;20.30;99.90
21799;DHT22;24973;47.178;15.316;2022-08-19T07:01:08;20.40;99.90
21799;DHT22;24973;47.178;15.316;2022-08-19T07:03:57;20.50;99.90
21799;DHT22;24973;47.178;15.316;2022-08-19T07:06:48;20.50;99.90
21799;DHT22;24973;47.178;15.316;2022-08-19T07:09:40;20.60;99.90
21799;DHT22;24973;47.178;15.316;2022-08-19T07:12:31;20.70;99.90
21799;DHT22;24973;47.178;15.316;2022-08-19T07:15:22;20.70;99.90
21799;DHT22;24973;47.178;15.316;2022-08-19T07:18:11;20.70;99.90
21799;DHT22;24973;47.178;15.316;2022-08-19T07:21:03;20.70;99.90
21799;DHT22;24973;47.178;15.316;2022-08-19T07:23:54;20.50;99.90
21799;DHT22;24973;47.178;15.316;2022-08-19T07:26:44;20.50;99.90
21799;DHT22;24973;47.178;15.316;2022-08-19T07:29:35;20.50;99.90
21799;DHT22;24973;47.178;15.316;2022-08-19T07:32:24;20.50;99.90
21799;DHT22;24973;47.178;15.316;2022-08-19T07:35:18;20.60;99.90
21799;DHT22;24973;47.178;15.316;2022-08-19T07:38:07;20.70;99.90
21799;DHT22;24973;47.178;15.316;2022-08-19T07:40:57;20.80;99.90
21799;DHT22;24973;47.178;15.316;2022-08-19T07:43:47;20.80;99.90
21799;DHT22;24973;47.178;15.316;2022-08-19T07:46:42;20.90;99.90
21799;DHT22;24973;47.178;15.316;2022-08-19T07:49:33;21.00;99.90
21799;DHT22;24973;47.178;15.316;2022-08-19T07:52:22;21.10;99.90
21799;DHT22;24973;47.178;15.316;2022-08-19T07:55:11;21.20;99.90
21799;DHT22;24973;47.178;15.316;2022-08-19T07:58:00;21.20;99.90
21799;DHT22;24973;47.178;15.316;2022-08-19T08:00:50;21.20;99.90
21799;DHT22;24973;47.178;15.316;2022-08-19T08:03:39;21.20;99.90
21799;DHT22;24973;47.178;15.316;2022-08-19T08:06:45;21.20;99.90
21799;DHT22;24973;47.178;15.316;2022-08-19T08:09:52;21.20;99.90
21799;DHT22;24973;47.178;15.316;2022-08-19T08:12:48;21.20;99.90
21799;DHT22;24973;47.178;15.316;2022-08-19T08:15:37;21.20;99.90
21799;DHT22;24973;47.178;15.316;2022-08-19T08:18:32;21.20;99.90
21799;DHT22;24973;47.178;15.316;2022-08-19T08:21:28;21.10;99.90
21799;DHT22;24973;47.178;15.316;2022-08-19T08:24:17;21.10;99.90
21799;DHT22;24973;47.178;15.316;2022-08-19T08:27:07;21.10;99.90
21799;DHT22;24973;47.178;15.316;2022-08-19T08:29:56;21.00;99.90
21799;DHT22;24973;47.178;15.316;2022-08-19T08:32:53;20.90;99.90
21799;DHT22;24973;47.178;15.316;2022-08-19T08:35:44;20.80;99.90
21799;DHT22;24973;47.178;15.316;2022-08-19T08:38:34;20.50;99.90
21799;DHT22;24973;47.178;15.316;2022-08-19T08:41:33;20.40;99.90
21799;DHT22;24973;47.178;15.316;2022-08-19T08:44:34;20.30;99.90
21799;DHT22;24973;47.178;15.316;2022-08-19T08:47:34;20.30;99.90
21799;DHT22;24973;47.178;15.316;2022-08-19T08:50:30;20.40;99.90
21799;DHT22;24973;47.178;15.316;2022-08-19T08:53:25;20.60;99.90
21799;DHT22;24973;47.178;15.316;2022-08-19T08:56:14;20.80;99.90
21799;DHT22;24973;47.178;15.316;2022-08-19T08:59:07;21.00;99.90
21799;DHT22;24973;47.178;15.316;2022-08-19T09:01:58;21.20;99.90
21799;DHT22;24973;47.178;15.316;2022-08-19T09:04:47;21.50;99.90
21799;DHT22;24973;47.178;15.316;2022-08-19T09:07:45;21.80;99.90
21799;DHT22;24973;47.178;15.316;2022-08-19T09:10:49;22.00;99.90
21799;DHT22;24973;47.178;15.316;2022-08-19T09:13:47;22.30;99.90
21799;DHT22;24973;47.178;15.316;2022-08-19T09:16:43;22.40;99.90
21799;DHT22;24973;47.178;15.316;2022-08-19T09:19:32;22.40;99.90
21799;DHT22;24973;47.178;15.316;2022-08-19T09:22:23;22.40;99.90
21799;DHT22;24973;47.178;15.316;2022-08-19T09:25:16;22.50;99.90
21799;DHT22;24973;47.178;15.316;2022-08-19T09:28:10;22.40;99.90
21799;DHT22;24973;47.178;15.316;2022-08-19T09:31:06;22.50;99.90
21799;DHT22;24973;47.178;15.316;2022-08-19T09:33:55;22.70;99.90
21799;DHT22;24973;47.178;15.316;2022-08-19T09:36:47;22.80;99.90
21799;DHT22;24973;47.178;15.316;2022-08-19T09:39:37;23.10;99.90
21799;DHT22;24973;47.178;15.316;2022-08-19T09:44:13;23.10;99.90
21799;DHT22;24973;47.178;15.316;2022-08-19T09:47:01;23.00;99.90
21799;DHT22;24973;47.178;15.316;2022-08-19T09:49:59;23.00;99.90
21799;DHT22;24973;47.178;15.316;2022-08-19T09:52:47;23.10;99.90
21799;DHT22;24973;47.178;15.316;2022-08-19T09:55:45;23.20;99.90
21799;DHT22;24973;47.178;15.316;2022-08-19T09:58:38;23.30;99.90
21799;DHT22;24973;47.178;15.316;2022-08-19T10:01:30;23.40;99.90
21799;DHT22;24973;47.178;15.316;2022-08-19T10:04:19;23.40;99.90
21799;DHT22;24973;47.178;15.316;2022-08-19T10:07:09;23.40;99.90
21799;DHT22;24973;47.178;15.316;2022-08-19T10:09:58;23.50;99.90
21799;DHT22;24973;47.178;15.316;2022-08-19T10:12:48;23.50;99.90
21799;DHT22;24973;47.178;15.316;2022-08-19T10:15:39;23.50;99.90
21799;DHT22;24973;47.178;15.316;2022-08-19T10:18:29;23.40;99.90
21799;DHT22;24973;47.178;15.316;2022-08-19T10:21:22;23.40;99.90
21799;DHT22;24973;47.178;15.316;2022-08-19T10:24:12;23.30;99.90
21799;DHT22;24973;47.178;15.316;2022-08-19T10:27:02;23.30;99.90
21799;DHT22;24973;47.178;15.316;2022-08-19T10:29:52;23.40;99.90
21799;DHT22;24973;47.178;15.316;2022-08-19T10:32:41;23.60;99.90
21799;DHT22;24973;47.178;15.316;2022-08-19T10:35:32;23.70;99.90
21799;DHT22;24973;47.178;15.316;2022-08-19T10:38:22;23.70;99.90
21799;DHT22;24973;47.178;15.316;2022-08-19T10:41:13;23.70;99.90
21799;DHT22;24973;47.178;15.316;2022-08-19T10:44:07;23.70;99.90
21799;DHT22;24973;47.178;15.316;2022-08-19T10:46:58;23.60;99.90
21799;DHT22;24973;47.178;15.316;2022-08-19T10:49:48;23.60;99.90
21799;DHT22;24973;47.178;15.316;2022-08-19T10:52:56;23.60;99.90
21799;DHT22;24973;47.178;15.316;2022-08-19T10:56:01;23.70;99.90
21799;DHT22;24973;47.178;15.316;2022-08-19T10:59:10;23.90;99.90
21799;DHT22;24973;47.178;15.316;2022-08-19T11:02:09;24.20;99.90
21799;DHT22;24973;47.178;15.316;2022-08-19T11:05:00;24.40;99.90
21799;DHT22;24973;47.178;15.316;2022-08-19T11:07:51;24.70;99.90
21799;DHT22;24973;47.178;15.316;2022-08-19T11:10:42;24.90;99.90
21799;DHT22;24973;47.178;15.316;2022-08-19T11:13:34;25.00;99.90
21799;DHT22;24973;47.178;15.316;2022-08-19T11:16:26;25.10;99.90
21799;DHT22;24973;47.178;15.316;2022-08-19T11:19:17;25.30;99.90
21799;DHT22;24973;47.178;15.316;2022-08-19T11:22:08;25.40;99.90
21799;DHT22;24973;47.178;15.316;2022-08-19T11:24:57;25.70;99.90
21799;DHT22;24973;47.178;15.316;2022-08-19T11:27:49;26.10;99.90
21799;DHT22;24973;47.178;15.316;2022-08-19T11:30:39;26.30;99.90
21799;DHT22;24973;47.178;15.316;2022-08-19T11:33:31;26.30;99.90
21799;DHT22;24973;47.178;15.316;2022-08-19T11:36:20;26.20;99.90
21799;DHT22;24973;47.178;15.316;2022-08-19T11:39:12;26.10;99.90
21799;DHT22;24973;47.178;15.316;2022-08-19T11:42:02;26.00;99.90
21799;DHT22;24973;47.178;15.316;2022-08-19T11:45:14;26.00;99.90
21799;DHT22;24973;47.178;15.316;2022-08-19T11:48:03;25.90;99.90
21799;DHT22;24973;47.178;15.316;2022-08-19T11:50:53;25.80;99.90
21799;DHT22;24973;47.178;15.316;2022-08-19T11:53:43;25.90;99.90
21799;DHT22;24973;47.178;15.316;2022-08-19T11:56:33;26.00;99.90
21799;DHT22;24973;47.178;15.316;2022-08-19T11:59:24;26.30;99.90
21799;DHT22;24973;47.178;15.316;2022-08-19T12:02:15;26.70;99.90
21799;DHT22;24973;47.178;15.316;2022-08-19T12:05:04;27.10;99.90
21799;DHT22;24973;47.178;15.316;2022-08-19T12:07:57;27.40;99.90
21799;DHT22;24973;47.178;15.316;2022-08-19T12:10:46;27.70;99.90
21799;DHT22;24973;47.178;15.316;2022-08-19T12:13:35;27.90;99.90
21799;DHT22;24973;47.178;15.316;2022-08-19T12:16:28;28.20;99.90
21799;DHT22;24973;47.178;15.316;2022-08-19T12:19:19;28.20;99.90
21799;DHT22;24973;47.178;15.316;2022-08-19T12:22:08;28.10;99.90
21799;DHT22;24973;47.178;15.316;2022-08-19T12:24:57;27.90;99.90
21799;DHT22;24973;47.178;15.316;2022-08-19T12:27:47;27.80;99.90
21799;DHT22;24973;47.178;15.316;2022-08-19T12:30:43;27.80;99.90
21799;DHT22;24973;47.178;15.316;2022-08-19T12:33:34;28.10;99.90
21799;DHT22;24973;47.178;15.316;2022-08-19T12:36:24;28.60;99.90
21799;DHT22;24973;47.178;15.316;2022-08-19T12:39:13;29.10;99.90
21799;DHT22;24973;47.178;15.316;2022-08-19T12:42:06;29.50;99.90
21799;DHT22;24973;47.178;15.316;2022-08-19T12:44:59;29.80;99.90
21799;DHT22;24973;47.178;15.316;2022-08-19T12:47:50;29.90;98.90
21799;DHT22;24973;47.178;15.316;2022-08-19T12:50:41;29.80;95.80
21799;DHT22;24973;47.178;15.316;2022-08-19T12:53:34;29.70;95.40
21799;DHT22;24973;47.178;15.316;2022-08-19T12:56:22;29.40;93.80
21799;DHT22;24973;47.178;15.316;2022-08-19T12:59:11;29.60;94.40
21799;DHT22;24973;47.178;15.316;2022-08-19T13:02:01;30.20;93.70
21799;DHT22;24973;47.178;15.316;2022-08-19T13:07:19;30.80;90.00
21799;DHT22;24973;47.178;15.316;2022-08-19T13:10:14;30.50;86.40
21799;DHT22;24973;47.178;15.316;2022-08-19T13:13:06;30.20;85.20
21799;DHT22;24973;47.178;15.316;2022-08-19T13:16:00;30.00;81.90
21799;DHT22;24973;47.178;15.316;2022-08-19T13:18:50;29.10;83.90
21799;DHT22;24973;47.178;15.316;2022-08-19T13:21:40;29.00;82.50
21799;DHT22;24973;47.178;15.316;2022-08-19T13:24:29;29.00;82.00
21799;DHT22;24973;47.178;15.316;2022-08-19T13:27:20;29.60;85.00
21799;DHT22;24973;47.178;15.316;2022-08-19T13:30:32;29.60;80.00
21799;DHT22;24973;47.178;15.316;2022-08-19T13:33:38;29.40;81.20
21799;DHT22;24973;47.178;15.316;2022-08-19T13:36:27;29.50;81.60
21799;DHT22;24973;47.178;15.316;2022-08-19T13:39:16;29.70;82.70
21799;DHT22;24973;47.178;15.316;2022-08-19T13:42:05;29.70;79.40
21799;DHT22;24973;47.178;15.316;2022-08-19T13:44:57;29.60;81.60
21799;DHT22;24973;47.178;15.316;2022-08-19T13:47:46;30.00;80.80
21799;DHT22;24973;47.178;15.316;2022-08-19T13:50:40;30.30;78.40
21799;DHT22;24973;47.178;15.316;2022-08-19T13:53:34;30.50;78.20
21799;DHT22;24973;47.178;15.316;2022-08-19T13:56:24;30.90;82.10
21799;DHT22;24973;47.178;15.316;2022-08-19T13:59:13;31.60;80.20
21799;DHT22;24973;47.178;15.316;2022-08-19T14:02:06;32.00;75.30
21799;DHT22;24973;47.178;15.316;2022-08-19T14:04:55;32.40;73.50
21799;DHT22;24973;47.178;15.316;2022-08-19T14:07:44;32.60;73.00
21799;DHT22;24973;47.178;15.316;2022-08-19T14:10:34;33.00;71.30
21799;DHT22;24973;47.178;15.316;2022-08-19T14:13:24;33.30;69.50
21799;DHT22;24973;47.178;15.316;2022-08-19T14:16:13;33.40;68.80
21799;DHT22;24973;47.178;15.316;2022-08-19T14:19:13;33.40;68.00
21799;DHT22;24973;47.178;15.316;2022-08-19T14:22:03;33.60;68.70
21799;DHT22;24973;47.178;15.316;2022-08-19T14:24:52;33.40;65.80
21799;DHT22;24973;47.178;15.316;2022-08-19T14:27:41;33.10;66.70
21799;DHT22;24973;47.178;15.316;2022-08-19T14:30:33;33.30;69.20
21799;DHT22;24973;47.178;15.316;2022-08-19T14:33:24;33.60;66.70
21799;DHT22;24973;47.178;15.316;2022-08-19T14:36:16;33.60;63.00
21799;DHT22;24973;47.178;15.316;2022-08-19T14:39:05;33.50;64.20
21799;DHT22;24973;47.178;15.316;2022-08-19T14:41:54;32.80;62.40
21799;DHT22;24973;47.178;15.316;2022-08-19T14:44:47;32.40;65.90
21799;DHT22;24973;47.178;15.316;2022-08-19T14:47:37;32.50;66.20
21799;DHT22;24973;47.178;15.316;2022-08-19T14:50:26;32.60;64.90
21799;DHT22;24973;47.178;15.316;2022-08-19T14:53:23;33.20;65.90
21799;DHT22;24973;47.178;15.316;2022-08-19T14:56:15;33.20;62.10
21799;DHT22;24973;47.178;15.316;2022-08-19T14:59:05;33.10;61.10
21799;DHT22;24973;47.178;15.316;2022-08-19T15:01:54;32.80;62.10
21799;DHT22;24973;47.178;15.316;2022-08-19T15:04:42;32.70;64.00
21799;DHT22;24973;47.178;15.316;2022-08-19T15:07:32;33.10;65.80
21799;DHT22;24973;47.178;15.316;2022-08-19T15:10:23;33.40;62.50
21799;DHT22;24973;47.178;15.316;2022-08-19T15:13:12;33.60;61.80
21799;DHT22;24973;47.178;15.316;2022-08-19T15:16:02;33.40;61.80
21799;DHT22;24973;47.178;15.316;2022-08-19T15:18:53;33.50;63.50
21799;DHT22;24973;47.178;15.316;2022-08-19T15:21:43;33.90;63.70
21799;DHT22;24973;47.178;15.316;2022-08-19T15:24:32;34.30;63.10
21799;DHT22;24973;47.178;15.316;2022-08-19T15:27:23;34.60;61.20
21799;DHT22;24973;47.178;15.316;2022-08-19T15:30:19;34.80;61.80
21799;DHT22;24973;47.178;15.316;2022-08-19T15:33:12;34.80;60.70
21799;DHT22;24973;47.178;15.316;2022-08-19T15:36:03;34.50;60.70
21799;DHT22;24973;47.178;15.316;2022-08-19T15:38:53;33.90;61.10
21799;DHT22;24973;47.178;15.316;2022-08-19T15:41:52;33.30;62.70
21799;DHT22;24973;47.178;15.316;2022-08-19T15:44:42;32.50;63.60
21799;DHT22;24973;47.178;15.316;2022-08-19T15:47:32;31.70;65.90
21799;DHT22;24973;47.178;15.316;2022-08-19T15:50:21;31.10;69.70
21799;DHT22;24973;47.178;15.316;2022-08-19T15:53:10;30.60;73.20
21799;DHT22;24973;47.178;15.316;2022-08-19T15:55:59;30.10;75.40
21799;DHT22;24973;47.178;15.316;2022-08-19T15:58:48;29.70;77.10
21799;DHT22;24973;47.178;15.316;2022-08-19T16:01:56;29.30;79.30
21799;DHT22;24973;47.178;15.316;2022-08-19T16:05:07;28.90;81.60
21799;DHT22;24973;47.178;15.316;2022-08-19T16:08:18;28.50;83.90
21799;DHT22;24973;47.178;15.316;2022-08-19T16:11:07;28.10;85.10
21799;DHT22;24973;47.178;15.316;2022-08-19T16:13:57;27.60;87.70
21799;DHT22;24973;47.178;15.316;2022-08-19T16:16:46;27.10;90.40
21799;DHT22;24973;47.178;15.316;2022-08-19T16:19:37;26.60;92.00
21799;DHT22;24973;47.178;15.316;2022-08-19T16:22:30;26.20;93.10
21799;DHT22;24973;47.178;15.316;2022-08-19T16:25:19;25.90;94.40
21799;DHT22;24973;47.178;15.316;2022-08-19T16:28:15;25.60;95.50
21799;DHT22;24973;47.178;15.316;2022-08-19T16:31:04;25.40;97.30
21799;DHT22;24973;47.178;15.316;2022-08-19T16:33:53;25.20;98.40
21799;DHT22;24973;47.178;15.316;2022-08-19T16:36:43;25.10;99.90
21799;DHT22;24973;47.178;15.316;2022-08-19T16:39:32;24.80;99.90
21799;DHT22;24973;47.178;15.316;2022-08-19T16:42:21;24.60;99.90
21799;DHT22;24973;47.178;15.316;2022-08-19T16:45:11;24.40;99.90
21799;DHT22;24973;47.178;15.316;2022-08-19T16:48:00;24.30;99.90
21799;DHT22;24973;47.178;15.316;2022-08-19T16:50:50;24.20;99.90
21799;DHT22;24973;47.178;15.316;2022-08-19T16:53:41;24.20;99.90
21799;DHT22;24973;47.178;15.316;2022-08-19T16:56:31;24.10;99.90
21799;DHT22;24973;47.178;15.316;2022-08-19T16:59:34;24.20;99.90
21799;DHT22;24973;47.178;15.316;2022-08-19T17:02:23;24.20;99.90
21799;DHT22;24973;47.178;15.316;2022-08-19T17:05:20;24.20;99.90
21799;DHT22;24973;47.178;15.316;2022-08-19T17:08:13;24.10;99.90
21799;DHT22;24973;47.178;15.316;2022-08-19T17:11:04;24.00;99.90
21799;DHT22;24973;47.178;15.316;2022-08-19T17:14:04;23.80;99.90
21799;DHT22;24973;47.178;15.316;2022-08-19T17:16:53;23.60;99.90
21799;DHT22;24973;47.178;15.316;2022-08-19T17:19:42;23.50;99.90
21799;DHT22;24973;47.178;15.316;2022-08-19T17:22:31;23.50;99.90
21799;DHT22;24973;47.178;15.316;2022-08-19T17:25:22;23.50;99.90
21799;DHT22;24973;47.178;15.316;2022-08-19T17:28:19;23.50;99.90
21799;DHT22;24973;47.178;15.316;2022-08-19T17:31:08;23.50;99.90
21799;DHT22;24973;47.178;15.316;2022-08-19T17:33:59;23.00;99.90
21799;DHT22;24973;47.178;15.316;2022-08-19T17:36:48;23.50;99.90
21799;DHT22;24973;47.178;15.316;2022-08-19T17:39:37;23.30;99.90
21799;DHT22;24973;47.178;15.316;2022-08-19T17:42:26;22.90;99.90
21799;DHT22;24973;47.178;15.316;2022-08-19T17:45:20;22.80;99.90
21799;DHT22;24973;47.178;15.316;2022-08-19T17:48:10;22.60;99.90
21799;DHT22;24973;47.178;15.316;2022-08-19T17:51:00;22.60;99.90
21799;DHT22;24973;47.178;15.316;2022-08-19T17:54:01;22.60;99.90
21799;DHT22;24973;47.178;15.316;2022-08-19T17:56:51;22.40;99.90